sensor_id;sensor_type;location;lat;lon;timestamp;pressure;altitude;pressure_sealevel;temperature;humidity
28448;BME280;15675;52.870;-1.416;2023-01-26T00:03:40;102519.06;;;5.32;100.00
28448;BME280;15675;52.870;-1.416;2023-01-26T00:06:08;102517.50;;;5.19;100.00
28448;BME280;15675;52.870;-1.416;2023-01-26T00:08:44;102517.34;;;5.32;100.00
28448;BME280;15675;52.870;-1.416;2023-01-26T00:11:12;102515.09;;;5.39;100.00
28448;BME280;15675;52.870;-1.416;2023-01-26T00:13:38;102513.06;;;5.33;100.00
28448;BME280;15675;52.870;-1.416;2023-01-26T00:16:07;102522.91;;;5.24;100.00
28448;BME280;15675;52.870;-1.416;2023-01-26T00:18:36;102519.63;;;4.95;100.00
28448;BME280;15675;52.870;-1.416;2023-01-26T00:21:02;102519.41;;;4.75;100.00
28448;BME280;15675;52.870;-1.416;2023-01-26T00:23:29;102524.66;;;4.47;100.00
28448;BME280;15675;52.870;-1.416;2023-01-26T00:25:55;102529.00;;;4.48;100.00
28448;BME280;15675;52.870;-1.416;2023-01-26T00:28:20;102517.72;;;4.46;100.00
28448;BME280;15675;52.870;-1.416;2023-01-26T00:30:46;102519.44;;;4.45;100.00
28448;BME280;15675;52.870;-1.416;2023-01-26T00:33:11;102511.50;;;4.57;100.00
28448;BME280;15675;52.870;-1.416;2023-01-26T00:35:37;102505.06;;;4.49;100.00
28448;BME280;15675;52.870;-1.416;2023-01-26T00:38:03;102515.88;;;4.58;100.00
28448;BME280;15675;52.870;-1.416;2023-01-26T00:40:29;102508.69;;;4.68;100.00
28448;BME280;15675;52.870;-1.416;2023-01-26T00:42:55;102509.22;;;4.62;100.00
28448;BME280;15675;52.870;-1.416;2023-01-26T00:45:21;102511.06;;;4.64;100.00
28448;BME280;15675;52.870;-1.416;2023-01-26T00:47:46;102516.56;;;4.56;100.00
28448;BME280;15675;52.870;-1.416;2023-01-26T00:50:12;102512.97;;;4.52;100.00
28448;BME280;15675;52.870;-1.416;2023-01-26T00:52:37;102516.31;;;4.51;100.00
28448;BME280;15675;52.870;-1.416;2023-01-26T00:55:03;102508.72;;;4.38;100.00
28448;BME280;15675;52.870;-1.416;2023-01-26T00:57:29;102512.03;;;4.52;100.00
28448;BME280;15675;52.870;-1.416;2023-01-26T00:59:54;102518.78;;;4.64;100.00
28448;BME280;15675;52.870;-1.416;2023-01-26T01:02:20;102515.75;;;4.72;100.00
28448;BME280;15675;52.870;-1.416;2023-01-26T01:04:45;102519.00;;;4.84;100.00
28448;BME280;15675;52.870;-1.416;2023-01-26T01:07:11;102522.28;;;4.96;100.00
28448;BME280;15675;52.870;-1.416;2023-01-26T01:09:36;102525.31;;;5.21;100.00
28448;BME280;15675;52.870;-1.416;2023-01-26T01:12:02;102519.94;;;5.01;100.00
28448;BME280;15675;52.870;-1.416;2023-01-26T01:14:27;102517.75;;;5.24;100.00
28448;BME280;15675;52.870;-1.416;2023-01-26T01:16:53;102525.19;;;5.67;100.00
28448;BME280;15675;52.870;-1.416;2023-01-26T01:19:18;102520.09;;;5.85;100.00
28448;BME280;15675;52.870;-1.416;2023-01-26T01:21:44;102521.56;;;5.80;100.00
28448;BME280;15675;52.870;-1.416;2023-01-26T01:24:10;102517.38;;;5.65;100.00
28448;BME280;15675;52.870;-1.416;2023-01-26T01:26:37;102517.28;;;5.64;100.00
28448;BME280;15675;52.870;-1.416;2023-01-26T01:29:04;102509.63;;;5.65;100.00
28448;BME280;15675;52.870;-1.416;2023-01-26T01:31:30;102511.09;;;5.27;100.00
28448;BME280;15675;52.870;-1.416;2023-01-26T01:33:56;102518.16;;;5.31;100.00
28448;BME280;15675;52.870;-1.416;2023-01-26T01:36:22;102520.66;;;5.30;100.00
28448;BME280;15675;52.870;-1.416;2023-01-26T01:38:48;102517.22;;;4.98;100.00
28448;BME280;15675;52.870;-1.416;2023-01-26T01:41:16;102521.34;;;5.11;100.00
28448;BME280;15675;52.870;-1.416;2023-01-26T01:43:43;102526.44;;;5.26;100.00
28448;BME280;15675;52.870;-1.416;2023-01-26T01:46:27;102526.81;;;5.17;100.00
28448;BME280;15675;52.870;-1.416;2023-01-26T01:49:18;102540.75;;;5.21;100.00
28448;BME280;15675;52.870;-1.416;2023-01-26T01:52:26;102541.13;;;5.43;100.00
28448;BME280;15675;52.870;-1.416;2023-01-26T01:54:54;102532.09;;;5.35;100.00
28448;BME280;15675;52.870;-1.416;2023-01-26T01:57:25;102534.44;;;5.30;100.00
28448;BME280;15675;52.870;-1.416;2023-01-26T02:00:07;102541.00;;;4.94;100.00
28448;BME280;15675;52.870;-1.416;2023-01-26T02:02:33;102532.34;;;5.08;100.00
28448;BME280;15675;52.870;-1.416;2023-01-26T02:05:06;102537.34;;;5.05;100.00
28448;BME280;15675;52.870;-1.416;2023-01-26T02:07:36;102534.94;;;5.08;100.00
28448;BME280;15675;52.870;-1.416;2023-01-26T02:10:03;102539.75;;;5.33;100.00
28448;BME280;15675;52.870;-1.416;2023-01-26T02:12:45;102542.88;;;5.28;100.00
28448;BME280;15675;52.870;-1.416;2023-01-26T02:15:13;102549.41;;;5.06;100.00
28448;BME280;15675;52.870;-1.416;2023-01-26T02:17:39;102537.50;;;5.08;100.00
28448;BME280;15675;52.870;-1.416;2023-01-26T02:20:28;102546.84;;;5.06;100.00
28448;BME280;15675;52.870;-1.416;2023-01-26T02:23:08;102540.38;;;4.98;100.00
28448;BME280;15675;52.870;-1.416;2023-01-26T02:28:10;102535.94;;;4.95;100.00
28448;BME280;15675;52.870;-1.416;2023-01-26T02:30:37;102536.47;;;4.90;100.00
28448;BME280;15675;52.870;-1.416;2023-01-26T02:33:03;102542.94;;;4.98;100.00
28448;BME280;15675;52.870;-1.416;2023-01-26T02:35:28;102549.81;;;4.97;100.00
28448;BME280;15675;52.870;-1.416;2023-01-26T02:37:54;102547.31;;;4.99;100.00
28448;BME280;15675;52.870;-1.416;2023-01-26T02:40:31;102537.25;;;5.04;100.00
28448;BME280;15675;52.870;-1.416;2023-01-26T02:42:58;102550.69;;;4.98;100.00
28448;BME280;15675;52.870;-1.416;2023-01-26T02:45:25;102549.81;;;4.82;100.00
28448;BME280;15675;52.870;-1.416;2023-01-26T02:47:50;102553.41;;;5.01;100.00
28448;BME280;15675;52.870;-1.416;2023-01-26T02:50:16;102551.78;;;5.18;100.00
28448;BME280;15675;52.870;-1.416;2023-01-26T02:52:41;102559.81;;;5.08;100.00
28448;BME280;15675;52.870;-1.416;2023-01-26T02:55:07;102559.97;;;4.96;100.00
28448;BME280;15675;52.870;-1.416;2023-01-26T02:57:55;102554.28;;;5.16;100.00
28448;BME280;15675;52.870;-1.416;2023-01-26T03:00:23;102561.06;;;4.99;100.00
28448;BME280;15675;52.870;-1.416;2023-01-26T03:02:50;102550.22;;;5.05;100.00
28448;BME280;15675;52.870;-1.416;2023-01-26T03:05:16;102551.00;;;5.04;100.00
28448;BME280;15675;52.870;-1.416;2023-01-26T03:07:42;102562.75;;;4.99;100.00
28448;BME280;15675;52.870;-1.416;2023-01-26T03:10:08;102555.66;;;5.26;100.00
28448;BME280;15675;52.870;-1.416;2023-01-26T03:12:34;102555.13;;;5.32;100.00
28448;BME280;15675;52.870;-1.416;2023-01-26T03:14:59;102562.22;;;5.05;100.00
28448;BME280;15675;52.870;-1.416;2023-01-26T03:17:43;102550.03;;;5.02;100.00
28448;BME280;15675;52.870;-1.416;2023-01-26T03:20:10;102552.72;;;4.89;100.00
28448;BME280;15675;52.870;-1.416;2023-01-26T03:22:54;102554.66;;;5.08;100.00
28448;BME280;15675;52.870;-1.416;2023-01-26T03:25:38;102560.25;;;5.00;100.00
28448;BME280;15675;52.870;-1.416;2023-01-26T03:28:23;102565.78;;;4.92;100.00
28448;BME280;15675;52.870;-1.416;2023-01-26T03:30:49;102560.03;;;4.81;100.00
28448;BME280;15675;52.870;-1.416;2023-01-26T03:33:16;102565.78;;;4.77;100.00
28448;BME280;15675;52.870;-1.416;2023-01-26T03:35:42;102563.22;;;4.77;100.00
28448;BME280;15675;52.870;-1.416;2023-01-26T03:38:08;102582.31;;;4.80;100.00
28448;BME280;15675;52.870;-1.416;2023-01-26T03:40:34;102575.13;;;4.75;100.00
28448;BME280;15675;52.870;-1.416;2023-01-26T03:43:17;102576.19;;;4.48;100.00
28448;BME280;15675;52.870;-1.416;2023-01-26T03:46:03;102578.16;;;4.68;100.00
28448;BME280;15675;52.870;-1.416;2023-01-26T03:48:47;102576.97;;;4.62;100.00
28448;BME280;15675;52.870;-1.416;2023-01-26T03:51:31;102577.56;;;4.88;100.00
28448;BME280;15675;52.870;-1.416;2023-01-26T03:54:15;102586.63;;;4.81;100.00
28448;BME280;15675;52.870;-1.416;2023-01-26T03:56:59;102590.91;;;4.81;100.00
28448;BME280;15675;52.870;-1.416;2023-01-26T03:59:25;102589.13;;;4.95;100.00
28448;BME280;15675;52.870;-1.416;2023-01-26T04:02:07;102582.28;;;4.95;100.00
28448;BME280;15675;52.870;-1.416;2023-01-26T04:04:51;102587.16;;;4.91;100.00
28448;BME280;15675;52.870;-1.416;2023-01-26T04:07:36;102584.06;;;4.96;100.00
28448;BME280;15675;52.870;-1.416;2023-01-26T04:10:21;102598.59;;;4.96;100.00
28448;BME280;15675;52.870;-1.416;2023-01-26T04:12:46;102608.00;;;4.95;100.00
28448;BME280;15675;52.870;-1.416;2023-01-26T04:15:30;102595.53;;;5.18;100.00
28448;BME280;15675;52.870;-1.416;2023-01-26T04:18:14;102603.94;;;4.99;100.00
28448;BME280;15675;52.870;-1.416;2023-01-26T04:21:01;102607.25;;;5.13;100.00
28448;BME280;15675;52.870;-1.416;2023-01-26T04:23:45;102603.56;;;5.39;100.00
28448;BME280;15675;52.870;-1.416;2023-01-26T04:26:10;102614.34;;;5.32;100.00
28448;BME280;15675;52.870;-1.416;2023-01-26T04:28:36;102613.78;;;5.38;100.00
28448;BME280;15675;52.870;-1.416;2023-01-26T04:31:02;102605.78;;;5.33;100.00
28448;BME280;15675;52.870;-1.416;2023-01-26T04:33:29;102611.66;;;5.62;100.00
28448;BME280;15675;52.870;-1.416;2023-01-26T04:35:55;102623.09;;;5.35;100.00
28448;BME280;15675;52.870;-1.416;2023-01-26T04:38:20;102620.66;;;5.53;100.00
28448;BME280;15675;52.870;-1.416;2023-01-26T04:40:52;102627.13;;;5.62;100.00
28448;BME280;15675;52.870;-1.416;2023-01-26T04:43:18;102639.66;;;5.56;100.00
28448;BME280;15675;52.870;-1.416;2023-01-26T04:45:43;102627.69;;;5.73;100.00
28448;BME280;15675;52.870;-1.416;2023-01-26T04:48:09;102625.66;;;5.50;100.00
28448;BME280;15675;52.870;-1.416;2023-01-26T04:50:34;102617.38;;;5.56;100.00
28448;BME280;15675;52.870;-1.416;2023-01-26T04:53:00;102616.97;;;5.65;100.00
28448;BME280;15675;52.870;-1.416;2023-01-26T04:55:25;102616.19;;;5.82;100.00
28448;BME280;15675;52.870;-1.416;2023-01-26T04:57:51;102612.66;;;5.80;100.00
28448;BME280;15675;52.870;-1.416;2023-01-26T05:00:16;102614.41;;;5.81;100.00
28448;BME280;15675;52.870;-1.416;2023-01-26T05:02:42;102610.88;;;5.79;100.00
28448;BME280;15675;52.870;-1.416;2023-01-26T05:05:08;102605.03;;;6.15;100.00
28448;BME280;15675;52.870;-1.416;2023-01-26T05:07:33;102618.22;;;6.21;100.00
28448;BME280;15675;52.870;-1.416;2023-01-26T05:09:59;102617.81;;;6.30;100.00
28448;BME280;15675;52.870;-1.416;2023-01-26T05:12:24;102616.66;;;6.41;100.00
28448;BME280;15675;52.870;-1.416;2023-01-26T05:14:59;102619.78;;;6.17;100.00
28448;BME280;15675;52.870;-1.416;2023-01-26T05:17:25;102615.72;;;6.22;100.00
28448;BME280;15675;52.870;-1.416;2023-01-26T05:19:50;102618.06;;;6.18;100.00
28448;BME280;15675;52.870;-1.416;2023-01-26T05:22:15;102616.66;;;6.41;99.95
28448;BME280;15675;52.870;-1.416;2023-01-26T05:24:41;102627.41;;;6.32;99.18
28448;BME280;15675;52.870;-1.416;2023-01-26T05:27:06;102612.56;;;6.45;99.13
28448;BME280;15675;52.870;-1.416;2023-01-26T05:29:48;102610.22;;;6.49;98.52
28448;BME280;15675;52.870;-1.416;2023-01-26T05:32:14;102611.84;;;6.31;99.14
28448;BME280;15675;52.870;-1.416;2023-01-26T05:34:39;102613.63;;;6.32;100.00
28448;BME280;15675;52.870;-1.416;2023-01-26T05:37:05;102607.59;;;6.15;100.00
28448;BME280;15675;52.870;-1.416;2023-01-26T05:39:30;102621.22;;;6.29;99.70
28448;BME280;15675;52.870;-1.416;2023-01-26T05:41:56;102614.16;;;6.59;99.57
28448;BME280;15675;52.870;-1.416;2023-01-26T05:44:22;102623.81;;;6.63;98.27
28448;BME280;15675;52.870;-1.416;2023-01-26T05:46:50;102623.03;;;6.64;97.07
28448;BME280;15675;52.870;-1.416;2023-01-26T05:49:15;102634.38;;;6.68;97.25
28448;BME280;15675;52.870;-1.416;2023-01-26T05:51:41;102640.75;;;6.58;97.56
28448;BME280;15675;52.870;-1.416;2023-01-26T05:54:06;102636.50;;;6.59;98.00
28448;BME280;15675;52.870;-1.416;2023-01-26T05:56:32;102642.66;;;6.44;97.82
28448;BME280;15675;52.870;-1.416;2023-01-26T05:58:58;102634.59;;;6.72;97.56
28448;BME280;15675;52.870;-1.416;2023-01-26T06:01:23;102640.44;;;6.52;97.25
28448;BME280;15675;52.870;-1.416;2023-01-26T06:03:49;102651.50;;;6.49;97.20
28448;BME280;15675;52.870;-1.416;2023-01-26T06:06:14;102649.41;;;6.59;97.71
28448;BME280;15675;52.870;-1.416;2023-01-26T06:08:40;102656.50;;;6.46;97.38
28448;BME280;15675;52.870;-1.416;2023-01-26T06:11:05;102651.63;;;6.69;97.59
28448;BME280;15675;52.870;-1.416;2023-01-26T06:13:31;102651.16;;;6.60;97.93
28448;BME280;15675;52.870;-1.416;2023-01-26T06:15:59;102648.31;;;6.71;97.99
28448;BME280;15675;52.870;-1.416;2023-01-26T06:18:25;102635.00;;;6.64;97.84
28448;BME280;15675;52.870;-1.416;2023-01-26T06:20:52;102647.09;;;6.81;97.75
28448;BME280;15675;52.870;-1.416;2023-01-26T06:23:18;102649.09;;;6.87;97.55
28448;BME280;15675;52.870;-1.416;2023-01-26T06:25:43;102644.47;;;6.63;97.75
28448;BME280;15675;52.870;-1.416;2023-01-26T06:28:09;102649.81;;;6.33;98.34
28448;BME280;15675;52.870;-1.416;2023-01-26T06:30:34;102649.63;;;6.63;99.54
28448;BME280;15675;52.870;-1.416;2023-01-26T06:33:00;102649.63;;;6.63;99.12
28448;BME280;15675;52.870;-1.416;2023-01-26T06:35:26;102654.88;;;6.48;99.54
28448;BME280;15675;52.870;-1.416;2023-01-26T06:37:52;102665.53;;;6.38;100.00
28448;BME280;15675;52.870;-1.416;2023-01-26T06:40:18;102667.84;;;6.50;100.00
28448;BME280;15675;52.870;-1.416;2023-01-26T06:42:50;102656.59;;;6.82;100.00
28448;BME280;15675;52.870;-1.416;2023-01-26T06:45:16;102666.13;;;6.67;100.00
28448;BME280;15675;52.870;-1.416;2023-01-26T06:47:45;102656.06;;;6.71;100.00
28448;BME280;15675;52.870;-1.416;2023-01-26T06:50:12;102672.13;;;6.49;100.00
28448;BME280;15675;52.870;-1.416;2023-01-26T06:52:40;102678.28;;;6.35;100.00
28448;BME280;15675;52.870;-1.416;2023-01-26T06:55:15;102677.94;;;6.45;100.00
28448;BME280;15675;52.870;-1.416;2023-01-26T06:57:41;102670.50;;;6.68;100.00
28448;BME280;15675;52.870;-1.416;2023-01-26T07:00:08;102683.94;;;6.28;100.00
28448;BME280;15675;52.870;-1.416;2023-01-26T07:02:33;102665.88;;;6.44;100.00
28448;BME280;15675;52.870;-1.416;2023-01-26T07:04:59;102678.78;;;6.44;100.00
28448;BME280;15675;52.870;-1.416;2023-01-26T07:07:24;102676.56;;;6.52;100.00
28448;BME280;15675;52.870;-1.416;2023-01-26T07:09:50;102679.63;;;6.28;100.00
28448;BME280;15675;52.870;-1.416;2023-01-26T07:12:16;102684.81;;;6.28;100.00
28448;BME280;15675;52.870;-1.416;2023-01-26T07:14:41;102677.06;;;6.28;100.00
28448;BME280;15675;52.870;-1.416;2023-01-26T07:17:07;102673.91;;;6.50;100.00
28448;BME280;15675;52.870;-1.416;2023-01-26T07:19:32;102683.03;;;6.11;100.00
28448;BME280;15675;52.870;-1.416;2023-01-26T07:21:58;102681.16;;;6.41;100.00
28448;BME280;15675;52.870;-1.416;2023-01-26T07:24:24;102682.88;;;6.41;100.00
28448;BME280;15675;52.870;-1.416;2023-01-26T07:26:50;102685.84;;;6.48;100.00
28448;BME280;15675;52.870;-1.416;2023-01-26T07:29:15;102674.28;;;6.74;100.00
28448;BME280;15675;52.870;-1.416;2023-01-26T07:31:41;102675.84;;;6.89;100.00
28448;BME280;15675;52.870;-1.416;2023-01-26T07:34:09;102675.56;;;6.83;100.00
28448;BME280;15675;52.870;-1.416;2023-01-26T07:36:34;102679.31;;;6.89;100.00
28448;BME280;15675;52.870;-1.416;2023-01-26T07:39:00;102690.19;;;6.66;100.00
28448;BME280;15675;52.870;-1.416;2023-01-26T07:41:25;102684.59;;;6.74;100.00
28448;BME280;15675;52.870;-1.416;2023-01-26T07:43:51;102678.13;;;6.32;100.00
28448;BME280;15675;52.870;-1.416;2023-01-26T07:46:16;102691.06;;;6.50;100.00
28448;BME280;15675;52.870;-1.416;2023-01-26T07:48:42;102680.44;;;6.60;100.00
28448;BME280;15675;52.870;-1.416;2023-01-26T07:51:08;102690.03;;;6.63;100.00
28448;BME280;15675;52.870;-1.416;2023-01-26T07:53:35;102696.25;;;6.33;100.00
28448;BME280;15675;52.870;-1.416;2023-01-26T07:56:13;102695.69;;;6.39;100.00
28448;BME280;15675;52.870;-1.416;2023-01-26T07:58:39;102693.41;;;6.45;100.00
28448;BME280;15675;52.870;-1.416;2023-01-26T08:01:10;102704.22;;;6.05;100.00
28448;BME280;15675;52.870;-1.416;2023-01-26T08:03:35;102697.03;;;5.99;100.00
28448;BME280;15675;52.870;-1.416;2023-01-26T08:06:01;102704.94;;;6.02;100.00
28448;BME280;15675;52.870;-1.416;2023-01-26T08:08:27;102712.13;;;6.08;100.00
28448;BME280;15675;52.870;-1.416;2023-01-26T08:10:56;102713.72;;;6.06;100.00
28448;BME280;15675;52.870;-1.416;2023-01-26T08:13:22;102722.09;;;6.02;100.00
28448;BME280;15675;52.870;-1.416;2023-01-26T08:15:48;102725.69;;;6.20;100.00
28448;BME280;15675;52.870;-1.416;2023-01-26T08:18:14;102728.84;;;6.00;100.00
28448;BME280;15675;52.870;-1.416;2023-01-26T08:20:39;102725.84;;;6.07;100.00
28448;BME280;15675;52.870;-1.416;2023-01-26T08:23:05;102723.75;;;6.33;100.00
28448;BME280;15675;52.870;-1.416;2023-01-26T08:25:30;102719.22;;;6.12;100.00
28448;BME280;15675;52.870;-1.416;2023-01-26T08:27:57;102722.84;;;6.16;100.00
28448;BME280;15675;52.870;-1.416;2023-01-26T08:30:23;102727.34;;;6.03;100.00
28448;BME280;15675;52.870;-1.416;2023-01-26T08:32:48;102728.72;;;6.13;100.00
28448;BME280;15675;52.870;-1.416;2023-01-26T08:35:14;102723.75;;;6.33;100.00
28448;BME280;15675;52.870;-1.416;2023-01-26T08:37:39;102724.47;;;6.47;100.00
28448;BME280;15675;52.870;-1.416;2023-01-26T08:40:05;102724.94;;;6.39;100.00
28448;BME280;15675;52.870;-1.416;2023-01-26T08:42:31;102722.28;;;6.38;100.00
28448;BME280;15675;52.870;-1.416;2023-01-26T08:44:57;102725.59;;;6.35;100.00
28448;BME280;15675;52.870;-1.416;2023-01-26T08:47:22;102723.44;;;6.43;100.00
28448;BME280;15675;52.870;-1.416;2023-01-26T08:49:48;102730.50;;;6.64;100.00
28448;BME280;15675;52.870;-1.416;2023-01-26T08:52:13;102735.91;;;6.52;100.00
28448;BME280;15675;52.870;-1.416;2023-01-26T08:54:39;102740.63;;;6.94;100.00
28448;BME280;15675;52.870;-1.416;2023-01-26T08:57:29;102747.94;;;7.02;100.00
28448;BME280;15675;52.870;-1.416;2023-01-26T08:59:55;102744.50;;;6.85;100.00
28448;BME280;15675;52.870;-1.416;2023-01-26T09:02:20;102752.44;;;6.88;100.00
28448;BME280;15675;52.870;-1.416;2023-01-26T09:04:46;102753.56;;;6.61;100.00
28448;BME280;15675;52.870;-1.416;2023-01-26T09:07:11;102738.88;;;6.76;100.00
28448;BME280;15675;52.870;-1.416;2023-01-26T09:09:37;102741.44;;;6.93;100.00
28448;BME280;15675;52.870;-1.416;2023-01-26T09:12:02;102740.31;;;6.87;100.00
28448;BME280;15675;52.870;-1.416;2023-01-26T09:14:28;102746.41;;;6.71;100.00
28448;BME280;15675;52.870;-1.416;2023-01-26T09:16:54;102734.47;;;7.08;100.00
28448;BME280;15675;52.870;-1.416;2023-01-26T09:19:20;102734.88;;;7.52;100.00
28448;BME280;15675;52.870;-1.416;2023-01-26T09:21:46;102741.88;;;7.36;100.00
28448;BME280;15675;52.870;-1.416;2023-01-26T09:24:16;102755.19;;;7.62;100.00
28448;BME280;15675;52.870;-1.416;2023-01-26T09:26:41;102750.81;;;7.43;100.00
28448;BME280;15675;52.870;-1.416;2023-01-26T09:29:06;102742.97;;;7.59;100.00
28448;BME280;15675;52.870;-1.416;2023-01-26T09:31:32;102749.63;;;7.90;100.00
28448;BME280;15675;52.870;-1.416;2023-01-26T09:33:57;102754.38;;;7.63;100.00
28448;BME280;15675;52.870;-1.416;2023-01-26T09:36:23;102751.47;;;7.39;100.00
28448;BME280;15675;52.870;-1.416;2023-01-26T09:38:48;102764.75;;;7.47;100.00
28448;BME280;15675;52.870;-1.416;2023-01-26T09:41:55;102758.47;;;7.23;100.00
28448;BME280;15675;52.870;-1.416;2023-01-26T09:44:27;102762.94;;;7.80;100.00
28448;BME280;15675;52.870;-1.416;2023-01-26T09:54:50;102764.84;;;7.66;100.00
28448;BME280;15675;52.870;-1.416;2023-01-26T09:57:22;102770.69;;;7.62;100.00
28448;BME280;15675;52.870;-1.416;2023-01-26T09:59:54;102764.78;;;7.65;100.00
28448;BME280;15675;52.870;-1.416;2023-01-26T10:02:48;102755.78;;;7.92;100.00
28448;BME280;15675;52.870;-1.416;2023-01-26T10:05:21;102770.03;;;7.84;100.00
28448;BME280;15675;52.870;-1.416;2023-01-26T10:07:48;102760.19;;;7.59;100.00
28448;BME280;15675;52.870;-1.416;2023-01-26T10:10:25;102761.16;;;7.79;100.00
28448;BME280;15675;52.870;-1.416;2023-01-26T10:12:52;102769.66;;;7.76;100.00
28448;BME280;15675;52.870;-1.416;2023-01-26T10:15:29;102762.41;;;7.87;100.00
28448;BME280;15675;52.870;-1.416;2023-01-26T10:17:59;102768.63;;;7.91;100.00
28448;BME280;15675;52.870;-1.416;2023-01-26T10:20:33;102772.81;;;8.07;100.00
28448;BME280;15675;52.870;-1.416;2023-01-26T10:23:01;102780.88;;;7.95;100.00
28448;BME280;15675;52.870;-1.416;2023-01-26T10:25:37;102789.06;;;8.22;100.00
28448;BME280;15675;52.870;-1.416;2023-01-26T10:28:34;102794.78;;;7.97;100.00
28448;BME280;15675;52.870;-1.416;2023-01-26T10:31:04;102796.97;;;7.53;100.00
28448;BME280;15675;52.870;-1.416;2023-01-26T10:33:32;102803.56;;;7.65;100.00
28448;BME280;15675;52.870;-1.416;2023-01-26T10:36:02;102803.63;;;7.66;100.00
28448;BME280;15675;52.870;-1.416;2023-01-26T10:41:02;102808.13;;;7.52;100.00
28448;BME280;15675;52.870;-1.416;2023-01-26T10:43:28;102806.81;;;7.60;100.00
28448;BME280;15675;52.870;-1.416;2023-01-26T10:45:55;102810.34;;;7.45;100.00
28448;BME280;15675;52.870;-1.416;2023-01-26T10:48:23;102805.78;;;7.57;100.00
28448;BME280;15675;52.870;-1.416;2023-01-26T10:50:52;102803.56;;;7.65;100.00
28448;BME280;15675;52.870;-1.416;2023-01-26T10:53:28;102795.13;;;7.69;100.00
28448;BME280;15675;52.870;-1.416;2023-01-26T10:58:57;102815.88;;;7.18;100.00
28448;BME280;15675;52.870;-1.416;2023-01-26T11:01:23;102803.59;;;7.14;100.00
28448;BME280;15675;52.870;-1.416;2023-01-26T11:04:03;102793.78;;;7.41;100.00
28448;BME280;15675;52.870;-1.416;2023-01-26T11:06:29;102799.19;;;7.64;100.00
28448;BME280;15675;52.870;-1.416;2023-01-26T11:09:29;102804.88;;;7.38;100.00
28448;BME280;15675;52.870;-1.416;2023-01-26T11:12:03;102801.03;;;7.66;100.00
28448;BME280;15675;52.870;-1.416;2023-01-26T11:14:31;102796.97;;;7.53;100.00
28448;BME280;15675;52.870;-1.416;2023-01-26T11:17:18;102800.72;;;7.42;100.00
28448;BME280;15675;52.870;-1.416;2023-01-26T11:19:59;102795.03;;;7.49;100.00
28448;BME280;15675;52.870;-1.416;2023-01-26T11:22:38;102805.94;;;7.60;100.00
28448;BME280;15675;52.870;-1.416;2023-01-26T11:33:12;102800.59;;;7.75;100.00
28448;BME280;15675;52.870;-1.416;2023-01-26T11:36:11;102805.84;;;7.94;100.00
28448;BME280;15675;52.870;-1.416;2023-01-26T11:39:05;102797.13;;;7.74;100.00
28448;BME280;15675;52.870;-1.416;2023-01-26T11:44:43;102793.91;;;8.16;100.00
28448;BME280;15675;52.870;-1.416;2023-01-26T11:47:30;102790.91;;;8.07;100.00
28448;BME280;15675;52.870;-1.416;2023-01-26T11:58:47;102788.94;;;7.83;100.00
28448;BME280;15675;52.870;-1.416;2023-01-26T12:01:28;102789.78;;;8.20;100.00
28448;BME280;15675;52.870;-1.416;2023-01-26T12:03:55;102779.19;;;8.15;100.00
28448;BME280;15675;52.870;-1.416;2023-01-26T12:06:37;102782.88;;;7.83;100.00
28448;BME280;15675;52.870;-1.416;2023-01-26T12:12:01;102780.03;;;8.14;100.00
28448;BME280;15675;52.870;-1.416;2023-01-26T12:23:03;102775.28;;;8.61;100.00
28448;BME280;15675;52.870;-1.416;2023-01-26T12:28:26;102806.03;;;8.35;100.00
28448;BME280;15675;52.870;-1.416;2023-01-26T12:33:36;102787.34;;;8.05;100.00
28448;BME280;15675;52.870;-1.416;2023-01-26T12:44:28;102785.16;;;7.94;100.00
28448;BME280;15675;52.870;-1.416;2023-01-26T12:47:14;102791.66;;;7.86;100.00
28448;BME280;15675;52.870;-1.416;2023-01-26T12:55:39;102771.81;;;8.23;100.00
28448;BME280;15675;52.870;-1.416;2023-01-26T12:58:27;102767.06;;;7.94;100.00
28448;BME280;15675;52.870;-1.416;2023-01-26T13:01:06;102760.22;;;8.15;100.00
28448;BME280;15675;52.870;-1.416;2023-01-26T13:03:36;102772.97;;;7.92;100.00
28448;BME280;15675;52.870;-1.416;2023-01-26T13:11:02;102762.41;;;8.05;100.00
28448;BME280;15675;52.870;-1.416;2023-01-26T13:18:54;102750.03;;;8.37;100.00
28448;BME280;15675;52.870;-1.416;2023-01-26T13:26:46;102748.06;;;8.32;100.00
28448;BME280;15675;52.870;-1.416;2023-01-26T13:31:51;102744.69;;;8.15;100.00
28448;BME280;15675;52.870;-1.416;2023-01-26T13:34:36;102744.44;;;8.08;100.00
28448;BME280;15675;52.870;-1.416;2023-01-26T13:37:29;102754.41;;;8.01;100.00
28448;BME280;15675;52.870;-1.416;2023-01-26T13:39:58;102761.47;;;7.85;100.00
28448;BME280;15675;52.870;-1.416;2023-01-26T13:42:37;102755.38;;;8.03;100.00
28448;BME280;15675;52.870;-1.416;2023-01-26T13:45:14;102765.84;;;8.06;100.00
28448;BME280;15675;52.870;-1.416;2023-01-26T13:47:44;102753.72;;;7.85;100.00
28448;BME280;15675;52.870;-1.416;2023-01-26T13:50:21;102757.91;;;8.01;100.00
28448;BME280;15675;52.870;-1.416;2023-01-26T13:52:48;102763.19;;;8.22;100.00
28448;BME280;15675;52.870;-1.416;2023-01-26T13:55:34;102762.88;;;8.16;100.00
28448;BME280;15675;52.870;-1.416;2023-01-26T13:58:18;102763.81;;;7.81;100.00
28448;BME280;15675;52.870;-1.416;2023-01-26T14:00:59;102776.06;;;8.03;100.00
28448;BME280;15675;52.870;-1.416;2023-01-26T14:03:25;102773.84;;;8.48;100.00
28448;BME280;15675;52.870;-1.416;2023-01-26T14:06:17;102771.06;;;8.25;100.00
28448;BME280;15675;52.870;-1.416;2023-01-26T14:08:50;102771.06;;;8.25;100.00
28448;BME280;15675;52.870;-1.416;2023-01-26T14:11:20;102779.38;;;8.00;100.00
28448;BME280;15675;52.870;-1.416;2023-01-26T14:13:55;102766.13;;;8.12;100.00
28448;BME280;15675;52.870;-1.416;2023-01-26T14:16:25;102760.75;;;8.07;100.00
28448;BME280;15675;52.870;-1.416;2023-01-26T14:24:12;102764.53;;;8.34;100.00
28448;BME280;15675;52.870;-1.416;2023-01-26T14:26:39;102763.66;;;8.33;100.00
28448;BME280;15675;52.870;-1.416;2023-01-26T14:29:10;102755.41;;;8.42;100.00